createdAt,value
2023-03-30T00:00:58.582Z,45.60
2023-03-30T00:03:27.487Z,47.80
2023-03-30T00:05:57.445Z,48.30
2023-03-30T00:08:28.321Z,47.30
2023-03-30T00:11:01.983Z,47.30
2023-03-30T00:13:32.614Z,48.50
2023-03-30T00:16:01.119Z,48.90
2023-03-30T00:18:30.608Z,49.60
2023-03-30T00:20:59.393Z,50.20
2023-03-30T00:23:27.700Z,50.10
2023-03-30T00:25:55.864Z,51.40
2023-03-30T00:28:25.122Z,51.90
2023-03-30T00:30:54.754Z,58.00
2023-03-30T00:33:33.603Z,58.70
2023-03-30T00:36:10.134Z,55.50
2023-03-30T00:38:38.241Z,54.30
2023-03-30T00:41:07.134Z,53.40
2023-03-30T00:43:35.408Z,55.00
2023-03-30T00:46:04.771Z,53.90
2023-03-30T00:48:36.293Z,54.90
2023-03-30T00:51:09.500Z,54.90
2023-03-30T00:53:42.065Z,54.60
2023-03-30T00:56:12.881Z,55.80
2023-03-30T00:58:42.213Z,55.90
2023-03-30T01:01:14.106Z,55.80
2023-03-30T01:03:46.642Z,55.40
2023-03-30T01:06:18.037Z,56.20
2023-03-30T01:08:46.516Z,56.20
2023-03-30T01:11:15.013Z,56.20
2023-03-30T01:13:45.153Z,56.30
2023-03-30T01:16:23.772Z,55.80
2023-03-30T01:18:58.326Z,56.40
2023-03-30T01:22:00.303Z,57.40
2023-03-30T01:24:53.621Z,59.60
2023-03-30T01:27:46.336Z,60.60
2023-03-30T01:30:38.855Z,59.80
2023-03-30T01:33:32.090Z,61.60
2023-03-30T01:36:23.739Z,59.10
2023-03-30T01:39:23.915Z,58.20
2023-03-30T01:41:59.392Z,58.10
2023-03-30T01:44:35.626Z,63.00
2023-03-30T01:47:10.559Z,63.80
2023-03-30T01:49:43.021Z,64.50
2023-03-30T01:52:19.381Z,61.60
2023-03-30T01:54:51.053Z,61.60
2023-03-30T01:57:21.909Z,61.80
2023-03-30T01:59:56.237Z,61.90
2023-03-30T02:02:29.708Z,61.20
2023-03-30T02:05:01.755Z,61.30
2023-03-30T02:07:33.034Z,62.00
2023-03-30T02:10:05.648Z,62.20
2023-03-30T02:12:37.088Z,62.00
2023-03-30T02:15:10.382Z,62.10
2023-03-30T02:17:38.763Z,62.50
2023-03-30T02:20:10.733Z,62.90
2023-03-30T02:22:39.522Z,62.90
2023-03-30T02:25:10.200Z,68.80
2023-03-30T02:27:38.605Z,63.20
2023-03-30T02:30:08.997Z,63.40
2023-03-30T02:32:42.355Z,68.30
2023-03-30T02:35:27.822Z,67.60
2023-03-30T02:38:23.528Z,69.20
2023-03-30T02:41:03.411Z,70.30
2023-03-30T02:43:39.092Z,70.00
2023-03-30T02:46:22.048Z,70.00
2023-03-30T02:49:02.292Z,70.10
2023-03-30T02:51:41.122Z,70.20
2023-03-30T02:54:39.500Z,70.70
2023-03-30T02:57:31.160Z,71.00
2023-03-30T03:00:24.378Z,71.00
2023-03-30T03:02:57.400Z,71.40
2023-03-30T03:05:32.525Z,71.50
2023-03-30T03:08:07.161Z,71.70
2023-03-30T03:10:36.872Z,72.40
2023-03-30T03:13:08.216Z,72.80
2023-03-30T03:15:38.027Z,71.50
2023-03-30T03:18:09.024Z,71.80
2023-03-30T03:20:37.237Z,71.80
2023-03-30T03:23:06.132Z,71.70
2023-03-30T03:25:42.442Z,71.50
2023-03-30T03:28:13.010Z,72.30
2023-03-30T03:30:44.516Z,72.10
2023-03-30T03:33:20.180Z,73.30
2023-03-30T03:36:10.206Z,72.90
2023-03-30T03:38:42.056Z,72.50
2023-03-30T03:41:10.535Z,73.30
2023-03-30T03:43:41.595Z,73.00
2023-03-30T03:46:09.928Z,73.30
2023-03-30T03:48:38.016Z,73.00
2023-03-30T03:51:06.517Z,73.20
2023-03-30T03:53:36.753Z,73.60
2023-03-30T03:56:08.952Z,74.90
2023-03-30T03:58:37.231Z,71.70
2023-03-30T04:01:07.172Z,71.50
2023-03-30T04:03:35.568Z,72.70
2023-03-30T04:06:03.559Z,74.80
2023-03-30T04:08:32.997Z,75.40
2023-03-30T04:11:12.336Z,76.70
2023-03-30T04:14:06.464Z,72.60
2023-03-30T04:16:44.755Z,72.90
2023-03-30T04:19:32.152Z,73.60
2023-03-30T04:22:19.780Z,75.80
2023-03-30T04:25:08.598Z,75.20
2023-03-30T04:27:58.178Z,76.00
2023-03-30T04:31:06.738Z,75.40
2023-03-30T04:34:14.829Z,74.90
2023-03-30T04:37:18.034Z,75.00
2023-03-30T04:40:07.977Z,74.10
2023-03-30T04:42:50.879Z,75.60
2023-03-30T04:45:42.168Z,75.00
2023-03-30T04:48:28.699Z,73.90
2023-03-30T04:51:13.065Z,74.80
2023-03-30T04:53:43.738Z,73.90
2023-03-30T04:56:40.860Z,74.10
2023-03-30T04:59:24.250Z,73.40
2023-03-30T05:02:11.876Z,73.80
2023-03-30T05:05:06.438Z,72.80
2023-03-30T05:07:47.756Z,72.50
2023-03-30T05:10:36.222Z,73.00
2023-03-30T05:13:22.741Z,71.90
2023-03-30T05:16:04.352Z,71.20
2023-03-30T05:18:51.799Z,71.90
2023-03-30T05:21:52.345Z,71.10
2023-03-30T05:24:40.657Z,71.20
2023-03-30T05:27:44.192Z,72.40
2023-03-30T05:30:29.073Z,73.20
2023-03-30T05:33:15.592Z,74.10
2023-03-30T05:36:13.349Z,72.90
2023-03-30T05:38:49.876Z,73.50
2023-03-30T05:41:54.437Z,73.10
2023-03-30T05:44:42.638Z,73.10
2023-03-30T05:47:20.836Z,73.80
2023-03-30T05:50:21.898Z,73.80
2023-03-30T05:52:54.429Z,75.90
2023-03-30T05:55:27.677Z,76.10
2023-03-30T05:58:16.492Z,72.60
2023-03-30T06:00:54.174Z,71.40
2023-03-30T06:03:33.241Z,69.60
2023-03-30T06:06:01.957Z,68.10
2023-03-30T06:08:32.429Z,68.50
2023-03-30T06:11:04.596Z,68.50
2023-03-30T06:13:45.296Z,67.60
2023-03-30T06:16:13.684Z,67.60
2023-03-30T06:18:41.749Z,67.40
2023-03-30T06:21:13.865Z,67.10
2023-03-30T06:23:53.596Z,68.20
2023-03-30T06:26:24.395Z,68.20
2023-03-30T06:28:54.600Z,68.70
2023-03-30T06:31:23.086Z,68.20
2023-03-30T06:33:58.597Z,66.40
2023-03-30T06:36:44.410Z,65.20
2023-03-30T06:39:15.191Z,63.50
2023-03-30T06:41:43.186Z,62.80
2023-03-30T06:44:28.213Z,62.40
2023-03-30T06:46:56.279Z,62.70
2023-03-30T06:49:24.302Z,62.70
2023-03-30T06:52:25.313Z,61.70
2023-03-30T06:54:53.377Z,61.90
2023-03-30T06:57:21.446Z,63.30
2023-03-30T06:59:51.056Z,62.70
2023-03-30T07:02:21.905Z,62.80
2023-03-30T07:05:09.113Z,62.20
2023-03-30T07:08:04.414Z,62.90
2023-03-30T07:10:33.278Z,62.20
2023-03-30T07:13:03.693Z,61.40
2023-03-30T07:15:34.578Z,62.20
2023-03-30T07:18:03.224Z,63.10
2023-03-30T07:20:31.586Z,63.00
2023-03-30T07:23:11.645Z,64.70
2023-03-30T07:25:41.302Z,64.30
2023-03-30T07:28:16.743Z,64.20
2023-03-30T07:30:47.877Z,63.40
2023-03-30T07:33:17.308Z,63.10
2023-03-30T07:35:46.877Z,63.20
2023-03-30T07:38:19.184Z,61.90
2023-03-30T07:40:52.627Z,61.30
2023-03-30T07:43:22.756Z,61.60
2023-03-30T07:45:52.564Z,62.20
2023-03-30T07:48:27.546Z,62.90
2023-03-30T07:51:01.712Z,63.50
2023-03-30T07:53:31.810Z,63.60
2023-03-30T07:56:02.462Z,63.80
2023-03-30T07:58:39.149Z,63.20
2023-03-30T08:01:09.543Z,63.50
2023-03-30T08:03:39.226Z,63.40
2023-03-30T08:06:07.811Z,63.10
2023-03-30T08:08:41.029Z,63.40
2023-03-30T08:11:11.116Z,64.30
2023-03-30T08:13:39.217Z,61.70
2023-03-30T08:16:09.972Z,62.50
2023-03-30T08:18:38.297Z,62.10
2023-03-30T08:21:06.949Z,60.20
2023-03-30T08:23:35.356Z,59.40
2023-03-30T08:26:03.433Z,59.70
2023-03-30T08:28:31.871Z,58.00
2023-03-30T08:31:04.890Z,57.30
2023-03-30T08:33:34.922Z,58.30
2023-03-30T08:36:03.086Z,58.50
2023-03-30T08:38:31.174Z,58.90
2023-03-30T08:41:00.087Z,59.20
2023-03-30T08:43:51.283Z,59.90
2023-03-30T08:46:22.134Z,59.80
2023-03-30T08:48:57.883Z,60.80
2023-03-30T08:51:29.203Z,61.50
2023-03-30T08:54:02.529Z,62.50
2023-03-30T08:56:36.586Z,64.60
2023-03-30T08:59:18.647Z,62.20
2023-03-30T09:01:53.142Z,60.20
2023-03-30T09:04:29.719Z,61.60
2023-03-30T09:07:02.429Z,61.80
2023-03-30T09:09:33.074Z,60.60
2023-03-30T09:12:06.633Z,59.50
2023-03-30T09:14:39.694Z,59.80
2023-03-30T09:17:13.530Z,60.90
2023-03-30T09:19:52.180Z,61.20
2023-03-30T09:22:21.936Z,62.70
2023-03-30T09:24:51.459Z,62.70
2023-03-30T09:27:25.293Z,62.50
2023-03-30T09:29:58.216Z,60.90
2023-03-30T09:32:32.463Z,61.60
2023-03-30T09:35:07.627Z,60.50
2023-03-30T09:37:37.073Z,59.40
2023-03-30T09:40:21.655Z,58.50
2023-03-30T09:43:00.244Z,60.10
2023-03-30T09:45:33.289Z,60.00
2023-03-30T09:48:05.832Z,60.30
2023-03-30T09:50:39.983Z,60.60
2023-03-30T09:53:19.555Z,60.30
2023-03-30T09:55:59.967Z,59.00
2023-03-30T09:58:30.350Z,57.50
2023-03-30T10:01:08.306Z,56.00
2023-03-30T10:03:36.751Z,54.40
2023-03-30T10:06:09.100Z,53.20
2023-03-30T10:08:43.050Z,53.20
2023-03-30T10:11:11.697Z,49.70
2023-03-30T10:13:45.471Z,46.70
2023-03-30T10:16:24.542Z,43.00
2023-03-30T10:18:55.639Z,38.40
2023-03-30T10:21:27.253Z,37.90
2023-03-30T10:24:04.539Z,36.80
2023-03-30T10:26:34.608Z,36.50
2023-03-30T10:29:05.096Z,36.40
2023-03-30T10:31:36.874Z,36.30
2023-03-30T10:34:08.685Z,35.90
2023-03-30T10:36:40.780Z,35.70
2023-03-30T10:39:13.564Z,37.80
2023-03-30T10:41:42.832Z,38.20
2023-03-30T10:44:23.342Z,38.30
2023-03-30T10:46:54.667Z,39.60
2023-03-30T10:49:38.226Z,40.60
2023-03-30T10:52:13.806Z,40.50
2023-03-30T10:54:46.105Z,41.10
2023-03-30T10:57:16.857Z,37.90
2023-03-30T10:59:59.351Z,35.20
2023-03-30T11:02:46.096Z,33.10
2023-03-30T11:05:16.975Z,33.90
2023-03-30T11:07:48.452Z,34.70
2023-03-30T11:10:20.563Z,34.70
2023-03-30T11:12:53.423Z,35.30
2023-03-30T11:15:27.628Z,35.30
2023-03-30T11:18:03.344Z,34.40
2023-03-30T11:20:34.692Z,34.90
2023-03-30T11:23:15.138Z,35.70
2023-03-30T11:25:58.062Z,36.90
2023-03-30T11:28:41.633Z,37.20
2023-03-30T11:31:17.816Z,35.70
2023-03-30T11:33:51.116Z,35.90
2023-03-30T11:36:24.835Z,35.40
2023-03-30T11:39:01.774Z,34.80
2023-03-30T11:41:37.666Z,35.10
2023-03-30T11:44:06.328Z,34.30
2023-03-30T11:46:42.107Z,32.30
2023-03-30T11:49:25.952Z,30.70
2023-03-30T11:52:17.002Z,30.00
2023-03-30T11:55:04.900Z,29.10
2023-03-30T11:57:41.235Z,29.90
2023-03-30T12:00:40.602Z,30.60
2023-03-30T12:03:30.794Z,31.10
2023-03-30T12:06:07.401Z,32.20
2023-03-30T12:08:59.438Z,32.40
2023-03-30T12:11:39.347Z,32.70
2023-03-30T12:14:21.695Z,32.40
2023-03-30T12:16:52.836Z,31.70
2023-03-30T12:19:27.128Z,32.00
2023-03-30T12:21:58.984Z,30.60
2023-03-30T12:24:34.186Z,29.90
2023-03-30T12:27:05.743Z,30.00
2023-03-30T12:30:02.479Z,30.60
2023-03-30T12:32:36.924Z,30.20
2023-03-30T12:35:47.671Z,31.20
2023-03-30T12:38:24.840Z,32.90
2023-03-30T12:41:05.857Z,34.60
2023-03-30T12:43:47.615Z,35.80
2023-03-30T12:46:26.306Z,35.30
2023-03-30T12:49:06.196Z,36.70
2023-03-30T12:51:45.952Z,37.20
2023-03-30T12:54:43.896Z,37.80
2023-03-30T12:57:24.616Z,39.20
2023-03-30T13:00:10.274Z,38.90
2023-03-30T13:02:59.077Z,39.30
2023-03-30T13:05:31.453Z,40.10
2023-03-30T13:08:06.136Z,40.90
2023-03-30T13:10:43.563Z,41.70
2023-03-30T13:13:24.832Z,42.80
2023-03-30T13:15:57.875Z,44.50
2023-03-30T13:18:53.652Z,45.00
2023-03-30T13:21:26.063Z,45.00
2023-03-30T13:24:05.365Z,46.70
2023-03-30T13:26:45.696Z,47.20
2023-03-30T13:29:17.078Z,47.10
2023-03-30T13:32:06.889Z,46.40
2023-03-30T13:35:03.677Z,46.30
2023-03-30T13:37:59.388Z,46.80
2023-03-30T13:40:51.406Z,46.20
2023-03-30T13:43:42.422Z,46.40
2023-03-30T13:46:19.939Z,47.90
2023-03-30T13:49:03.429Z,47.10
2023-03-30T13:51:32.777Z,45.90
2023-03-30T13:54:09.449Z,45.50
2023-03-30T13:56:40.689Z,44.80
2023-03-30T13:59:15.815Z,45.90
2023-03-30T14:01:48.678Z,43.50
2023-03-30T14:04:18.140Z,43.20
2023-03-30T14:06:53.251Z,43.10
2023-03-30T14:09:24.549Z,42.30
2023-03-30T14:11:54.581Z,43.30
2023-03-30T14:14:28.012Z,42.30
2023-03-30T14:16:59.689Z,44.10
2023-03-30T14:19:30.486Z,45.30
2023-03-30T14:22:02.298Z,46.50
2023-03-30T14:24:33.964Z,46.90
2023-03-30T14:27:10.019Z,48.30
2023-03-30T14:29:45.099Z,47.70
2023-03-30T14:32:15.937Z,48.40
2023-03-30T14:34:48.878Z,49.10
2023-03-30T14:37:19.629Z,50.70
2023-03-30T14:39:56.710Z,51.20
2023-03-30T14:42:28.662Z,52.20
2023-03-30T14:44:59.915Z,53.60
2023-03-30T14:47:29.635Z,54.80
2023-03-30T14:50:04.506Z,54.90
2023-03-30T14:52:41.196Z,55.30
2023-03-30T14:55:17.573Z,56.50
2023-03-30T14:57:47.706Z,56.20
2023-03-30T15:00:20.654Z,57.60
2023-03-30T15:02:52.978Z,64.30
2023-03-30T15:05:24.951Z,69.10
2023-03-30T15:07:54.209Z,73.90
2023-03-30T15:10:24.944Z,78.00
2023-03-30T15:12:56.015Z,81.20
2023-03-30T15:15:28.375Z,85.90
2023-03-30T15:17:57.465Z,89.20
2023-03-30T15:20:29.473Z,89.60
2023-03-30T15:22:58.121Z,90.20
2023-03-30T15:25:32.329Z,91.40
2023-03-30T15:28:04.073Z,89.90
2023-03-30T15:30:35.921Z,91.30
2023-03-30T15:33:05.745Z,92.00
2023-03-30T15:35:36.465Z,93.00
2023-03-30T15:38:14.390Z,93.70
2023-03-30T15:40:44.180Z,93.60
2023-03-30T15:43:13.703Z,93.20
2023-03-30T15:45:47.312Z,91.70
2023-03-30T15:48:17.713Z,92.30
2023-03-30T15:50:52.342Z,91.20
2023-03-30T15:53:28.744Z,91.30
2023-03-30T15:55:57.317Z,91.50
2023-03-30T15:58:29.341Z,90.70
2023-03-30T16:00:58.014Z,89.60
2023-03-30T16:03:42.013Z,88.80
2023-03-30T16:06:14.564Z,88.50
2023-03-30T16:08:44.462Z,88.40
2023-03-30T16:11:15.338Z,88.90
2023-03-30T16:13:44.296Z,88.50
2023-03-30T16:16:13.937Z,89.10
2023-03-30T16:18:42.825Z,87.50
2023-03-30T16:21:15.649Z,87.10
2023-03-30T16:23:43.583Z,88.10
2023-03-30T16:26:12.517Z,86.50
2023-03-30T16:28:42.728Z,86.90
2023-03-30T16:31:17.787Z,85.30
2023-03-30T16:33:45.911Z,87.00
2023-03-30T16:36:17.264Z,87.10
2023-03-30T16:38:47.873Z,87.00
2023-03-30T16:41:23.223Z,85.90
2023-03-30T16:43:51.855Z,85.90
2023-03-30T16:46:22.417Z,85.60
2023-03-30T16:48:52.182Z,86.20
2023-03-30T16:51:25.237Z,86.10
2023-03-30T16:53:54.286Z,85.80
2023-03-30T16:56:23.314Z,85.60
2023-03-30T16:58:51.521Z,85.20
2023-03-30T17:01:19.593Z,85.30
2023-03-30T17:03:47.865Z,85.20
2023-03-30T17:06:17.045Z,85.70
2023-03-30T17:08:46.481Z,85.20
2023-03-30T17:11:14.576Z,85.30
2023-03-30T17:13:43.217Z,86.70
2023-03-30T17:16:13.943Z,87.60
2023-03-30T17:18:42.112Z,87.90
2023-03-30T17:21:16.083Z,88.80
2023-03-30T17:23:47.652Z,89.40
2023-03-30T17:26:16.054Z,88.70
2023-03-30T17:28:44.589Z,88.60
2023-03-30T17:31:16.361Z,88.70
2023-03-30T17:33:44.795Z,90.00
2023-03-30T17:36:15.642Z,90.60
2023-03-30T17:38:43.940Z,90.70
2023-03-30T17:41:15.370Z,90.80
2023-03-30T17:43:44.374Z,91.20
2023-03-30T17:46:12.655Z,91.50
2023-03-30T17:48:41.089Z,91.30
2023-03-30T17:51:09.183Z,91.50
2023-03-30T17:53:37.489Z,91.50
2023-03-30T17:56:06.278Z,91.40
2023-03-30T17:58:37.384Z,91.40
2023-03-30T18:01:08.450Z,91.20
2023-03-30T18:03:38.345Z,91.00
2023-03-30T18:06:07.419Z,91.30
2023-03-30T18:08:36.213Z,91.30
2023-03-30T18:11:05.341Z,91.60
2023-03-30T18:13:35.003Z,92.10
2023-03-30T18:16:03.011Z,93.20
2023-03-30T18:18:32.662Z,94.30
2023-03-30T18:21:03.911Z,95.00
2023-03-30T18:23:34.547Z,96.40
2023-03-30T18:26:07.111Z,97.60
2023-03-30T18:28:40.536Z,98.70
2023-03-30T18:31:09.188Z,99.90
2023-03-30T18:33:40.198Z,99.90
2023-03-30T18:36:12.729Z,99.90
2023-03-30T18:38:41.550Z,99.90
2023-03-30T18:41:11.877Z,99.90
2023-03-30T18:43:41.229Z,99.90
2023-03-30T18:46:12.218Z,99.90
2023-03-30T18:48:40.327Z,99.90
2023-03-30T18:51:10.924Z,99.90
2023-03-30T18:53:39.028Z,99.90
2023-03-30T18:56:07.398Z,99.90
2023-03-30T18:58:41.610Z,99.90
2023-03-30T19:01:12.923Z,99.90
2023-03-30T19:03:41.775Z,99.90
2023-03-30T19:06:13.740Z,99.90
2023-03-30T19:08:43.411Z,99.90
2023-03-30T19:11:14.313Z,99.90
2023-03-30T19:13:42.202Z,99.90
2023-03-30T19:16:11.492Z,99.90
2023-03-30T19:18:39.950Z,99.90
2023-03-30T19:21:08.019Z,99.90
2023-03-30T19:23:36.156Z,99.90
2023-03-30T19:26:04.164Z,99.90
2023-03-30T19:28:33.249Z,99.90
2023-03-30T19:31:05.373Z,99.90
2023-03-30T19:33:34.921Z,99.90
2023-03-30T19:36:03.309Z,99.90
2023-03-30T19:38:31.338Z,99.90
2023-03-30T19:41:01.101Z,99.90
2023-03-30T19:43:29.216Z,99.90
2023-03-30T19:45:57.874Z,99.90
2023-03-30T19:48:27.297Z,99.90
2023-03-30T19:50:56.944Z,99.90
2023-03-30T19:53:24.940Z,99.90
2023-03-30T19:55:52.874Z,99.90
2023-03-30T19:58:20.891Z,99.90
2023-03-30T20:00:49.468Z,99.90
2023-03-30T20:03:17.615Z,99.90
2023-03-30T20:05:50.363Z,99.90
2023-03-30T20:08:24.402Z,99.90
2023-03-30T20:10:53.898Z,99.90
2023-03-30T20:13:23.904Z,99.90
2023-03-30T20:15:57.016Z,99.90
2023-03-30T20:18:25.235Z,99.90
2023-03-30T20:20:53.220Z,99.90
2023-03-30T20:23:22.497Z,99.90
2023-03-30T20:25:52.529Z,99.90
2023-03-30T20:28:20.516Z,99.90
2023-03-30T20:30:48.441Z,99.90
2023-03-30T20:33:16.419Z,99.90
2023-03-30T20:35:44.356Z,99.90
2023-03-30T20:38:12.308Z,99.90
2023-03-30T20:40:41.579Z,99.90
2023-03-30T20:43:10.679Z,99.90
2023-03-30T20:45:46.194Z,99.90
2023-03-30T20:48:25.901Z,99.90
2023-03-30T20:50:54.591Z,99.90
2023-03-30T20:53:22.965Z,99.90
2023-03-30T20:55:52.602Z,99.90
2023-03-30T20:58:22.215Z,99.90
2023-03-30T21:00:51.961Z,99.90
2023-03-30T21:03:20.296Z,99.90
2023-03-30T21:05:48.687Z,99.90
2023-03-30T21:08:16.644Z,99.90
2023-03-30T21:10:45.014Z,99.90
2023-03-30T21:13:15.332Z,99.90
2023-03-30T21:15:43.285Z,99.90
2023-03-30T21:18:11.252Z,99.90
2023-03-30T21:20:39.282Z,99.90
2023-03-30T21:23:07.289Z,99.90
2023-03-30T21:25:35.407Z,99.90
2023-03-30T21:28:03.379Z,99.90
2023-03-30T21:30:34.687Z,99.90
2023-03-30T21:33:02.688Z,99.90
2023-03-30T21:35:30.885Z,99.90
2023-03-30T21:37:58.944Z,99.90
2023-03-30T21:40:26.925Z,99.90
2023-03-30T21:42:54.893Z,99.90
2023-03-30T21:45:22.943Z,99.90
2023-03-30T21:47:52.232Z,99.90
2023-03-30T21:50:20.311Z,99.90
2023-03-30T21:52:48.313Z,99.90
2023-03-30T21:55:16.402Z,99.90
2023-03-30T21:57:44.291Z,99.90
2023-03-30T22:00:13.621Z,99.90
2023-03-30T22:02:41.640Z,99.90
2023-03-30T22:05:11.204Z,99.90
2023-03-30T22:07:40.020Z,99.90
2023-03-30T22:10:08.736Z,99.90
2023-03-30T22:12:36.689Z,99.90
2023-03-30T22:15:04.892Z,99.90
2023-03-30T22:17:41.471Z,99.90
2023-03-30T22:20:12.364Z,99.90
2023-03-30T22:22:40.624Z,99.90
2023-03-30T22:25:09.265Z,99.90
2023-03-30T22:27:37.282Z,99.90
2023-03-30T22:30:07.400Z,99.90
2023-03-30T22:32:35.767Z,99.90
2023-03-30T22:35:04.069Z,99.90
2023-03-30T22:37:33.367Z,99.90
2023-03-30T22:40:01.357Z,99.90
2023-03-30T22:42:29.398Z,99.90
2023-03-30T22:44:57.538Z,99.90
2023-03-30T22:47:25.556Z,99.90
2023-03-30T22:49:53.669Z,99.90
2023-03-30T22:52:22.301Z,99.90
2023-03-30T22:54:51.636Z,99.90
2023-03-30T22:57:19.757Z,99.90
2023-03-30T22:59:47.777Z,99.90
2023-03-30T23:02:16.004Z,99.90
2023-03-30T23:04:48.770Z,99.90
2023-03-30T23:07:17.409Z,99.90
2023-03-30T23:09:47.433Z,99.90
2023-03-30T23:12:16.773Z,99.90
2023-03-30T23:14:44.756Z,99.90
2023-03-30T23:17:12.769Z,99.90
2023-03-30T23:19:40.706Z,99.90
2023-03-30T23:22:08.831Z,99.90
2023-03-30T23:24:36.798Z,99.90
2023-03-30T23:27:04.793Z,99.90
2023-03-30T23:29:34.026Z,99.90
2023-03-30T23:32:01.945Z,99.90
2023-03-30T23:34:29.841Z,99.90
2023-03-30T23:36:59.527Z,99.90
2023-03-30T23:39:27.696Z,99.90
2023-03-30T23:41:57.046Z,99.90
2023-03-30T23:44:25.047Z,99.90
2023-03-30T23:46:54.369Z,99.90
2023-03-30T23:49:22.631Z,99.90
2023-03-30T23:51:50.723Z,99.90
2023-03-30T23:54:18.730Z,99.90
2023-03-30T23:56:46.866Z,99.90
2023-03-30T23:59:14.950Z,99.90
